Time;durP1;ratioP1;P1;durP2;ratioP2;P2;SDS_P1;SDS_P2;PMS_P1;PMS_P2;Temp;Humidity;BMP_temperature;BMP_pressure;BME280_temperature;BME280_humidity;BME280_pressure;Samples;Min_cycle;Max_cycle;Signal;HPM_P1;HPM_P2
2023/12/05 00:03:11;;;;;;;27.13;13.77;;;;;;;-0.69;100.00;100285.03;10424803;28;20075;-75
2023/12/05 00:08:12;;;;;;;24.43;12.33;;;;;;;-0.68;100.00;100297.53;10408189;28;20045;-76
2023/12/05 00:13:12;;;;;;;26.53;14.10;;;;;;;-0.71;100.00;100292.47;10410794;28;20722;-73
2023/12/05 00:18:13;;;;;;;24.47;13.33;;;;;;;-0.72;100.00;100291.66;10441574;28;20072;-75
2023/12/05 00:23:13;;;;;;;26.20;15.37;;;;;;;-0.74;100.00;100288.31;10408143;28;20410;-75
2023/12/05 00:28:14;;;;;;;25.80;14.40;;;;;;;-0.74;100.00;100277.50;10441396;28;20041;-75
2023/12/05 00:33:14;;;;;;;32.87;16.53;;;;;;;-0.77;100.00;100271.63;10424391;28;20434;-75
2023/12/05 00:38:15;;;;;;;28.50;15.17;;;;;;;-0.77;100.00;100271.63;10393418;28;20063;-75
2023/12/05 00:43:15;;;;;;;29.10;16.47;;;;;;;-0.78;100.00;100275.38;10407013;28;20049;-75
2023/12/05 00:48:16;;;;;;;30.53;15.13;;;;;;;-0.87;100.00;100255.75;10414315;28;20041;-76
2023/12/05 00:53:16;;;;;;;30.97;16.50;;;;;;;-0.79;100.00;100269.13;10422795;28;20088;-75
2023/12/05 00:58:17;;;;;;;31.17;16.53;;;;;;;-0.80;100.00;100270.16;10392343;28;20072;-76
2023/12/05 01:03:17;;;;;;;33.27;16.83;;;;;;;-0.82;100.00;100274.94;10430190;28;20036;-76
2023/12/05 01:08:18;;;;;;;34.57;18.20;;;;;;;-0.81;100.00;100271.19;10425515;28;20033;-76
2023/12/05 01:13:18;;;;;;;37.03;18.83;;;;;;;-0.82;100.00;100269.53;10407102;28;20033;-75
2023/12/05 01:18:18;;;;;;;33.73;17.17;;;;;;;-0.82;100.00;100269.53;10406812;28;20048;-75
2023/12/05 01:23:19;;;;;;;33.10;17.47;;;;;;;-0.83;100.00;100270.53;10440526;28;20041;-75
2023/12/05 01:28:19;;;;;;;34.30;17.33;;;;;;;-0.82;100.00;100264.94;10389931;28;20489;-76
2023/12/05 01:33:20;;;;;;;34.90;16.97;;;;;;;-0.86;100.00;100252.84;10406118;28;20045;-76
2023/12/05 01:38:20;;;;;;;33.00;15.90;;;;;;;-0.87;100.00;100247.63;10407088;28;20048;-75
2023/12/05 01:43:21;;;;;;;29.70;16.73;;;;;;;-0.82;100.00;100251.44;10406505;28;20037;-76
2023/12/05 01:48:22;;;;;;;34.67;18.33;;;;;;;-0.82;100.00;100250.59;10407843;28;20045;-75
2023/12/05 01:53:23;;;;;;;33.20;17.00;;;;;;;-0.91;100.00;100244.50;10390609;28;20056;-75
2023/12/05 01:58:24;;;;;;;33.97;18.20;;;;;;;-0.84;100.00;100249.97;10405172;28;20451;-76
2023/12/05 02:03:24;;;;;;;35.73;18.83;;;;;;;-0.84;100.00;100249.97;10422406;28;20060;-76
2023/12/05 02:08:27;;;;;;;35.03;17.57;;;;;;;-0.83;100.00;100240.81;10439283;28;20455;-75
2023/12/05 02:13:27;;;;;;;33.80;17.23;;;;;;;-0.87;100.00;100240.41;10406390;28;20041;-75
2023/12/05 02:18:29;;;;;;;35.00;19.00;;;;;;;-0.88;100.00;100237.88;10390300;28;20037;-75
2023/12/05 02:23:36;;;;;;;35.93;18.03;;;;;;;-0.85;100.00;100248.28;10406027;28;20047;-75
2023/12/05 02:28:37;;;;;;;36.83;17.33;;;;;;;-0.87;100.00;100239.53;10438842;28;20043;-76
2023/12/05 02:33:38;;;;;;;36.43;18.80;;;;;;;-0.88;100.00;100244.09;10404890;28;20042;-76
2023/12/05 02:38:43;;;;;;;36.77;18.80;;;;;;;-0.89;100.00;100237.06;10392543;28;20075;-75
2023/12/05 02:43:46;;;;;;;39.20;18.83;;;;;;;-0.92;100.00;100228.50;10425475;28;20061;-75
2023/12/05 02:48:46;;;;;;;38.83;20.23;;;;;;;-0.97;100.00;100225.53;10364144;28;20033;-75
2023/12/05 02:53:47;;;;;;;35.63;19.43;;;;;;;-0.93;100.00;100226.81;10388536;28;20413;-76
2023/12/05 02:58:47;;;;;;;43.77;21.50;;;;;;;-1.14;100.00;100182.56;10404450;28;20430;-76
2023/12/05 03:03:48;;;;;;;41.27;23.57;;;;;;;-0.88;100.00;100218.97;10382888;28;20037;-75
2023/12/05 03:08:48;;;;;;;39.53;20.57;;;;;;;-1.32;100.00;100141.72;10422041;28;20033;-76
2023/12/05 03:13:49;;;;;;;44.30;22.17;;;;;;;-1.04;100.00;100191.16;10380613;28;20033;-75
2023/12/05 03:18:49;;;;;;;42.30;20.40;;;;;;;-0.89;100.00;100217.28;10398287;28;20092;-76
2023/12/05 03:23:50;;;;;;;41.97;21.67;;;;;;;-1.03;100.00;100186.63;10418073;28;20123;-76
2023/12/05 03:28:50;;;;;;;44.83;21.03;;;;;;;-0.88;100.00;100206.28;10399253;28;20052;-76
2023/12/05 03:33:51;;;;;;;52.70;23.13;;;;;;;-0.90;100.00;100200.22;10401154;28;20060;-76
2023/12/05 03:38:52;;;;;;;42.93;22.30;;;;;;;-0.91;100.00;100195.88;10403601;28;20058;-76
2023/12/05 03:43:53;;;;;;;46.07;21.13;;;;;;;-0.89;100.00;100203.75;10401263;28;20041;-75
2023/12/05 03:48:53;;;;;;;49.50;23.10;;;;;;;-1.11;100.00;100168.69;10387249;28;20034;-77
2023/12/05 03:53:54;;;;;;;47.37;21.83;;;;;;;-0.97;100.00;100180.44;10386683;28;20057;-77
2023/12/05 03:58:54;;;;;;;45.53;23.20;;;;;;;-0.88;100.00;100197.34;10377976;28;20096;-77
2023/12/05 04:03:55;;;;;;;44.67;22.87;;;;;;;-0.93;100.00;100194.38;10408019;28;20042;-78
2023/12/05 04:09:10;;;;;;;48.10;23.33;;;;;;;-1.00;100.00;100185.41;10385418;28;20067;-77
2023/12/05 04:14:11;;;;;;;45.20;22.37;;;;;;;-0.87;100.00;100201.69;10387056;28;20052;-77
2023/12/05 04:19:11;;;;;;;49.20;23.02;;;;;;;-0.89;100.00;100201.06;10385818;28;20038;-77
2023/12/05 04:24:12;;;;;;;48.77;23.80;;;;;;;-0.98;100.00;100191.44;10379765;28;20042;-77
2023/12/05 04:29:12;;;;;;;53.77;22.83;;;;;;;-0.97;100.00;100190.41;10381181;28;20040;-77
2023/12/05 04:34:13;;;;;;;47.90;23.13;;;;;;;-0.87;100.00;100207.97;10377179;28;20050;-77
2023/12/05 04:39:13;;;;;;;52.60;23.60;;;;;;;-0.90;100.00;100199.41;10400369;28;20037;-81
2023/12/05 04:44:14;;;;;;;51.80;23.20;;;;;;;-0.88;100.00;100202.75;10396341;28;20037;-76
2023/12/05 04:49:15;;;;;;;47.27;22.97;;;;;;;-0.84;100.00;100207.56;10392851;28;20095;-76
2023/12/05 04:54:16;;;;;;;55.37;23.33;;;;;;;-0.85;100.00;100210.44;10398925;28;20052;-77
2023/12/05 04:59:16;;;;;;;52.27;25.13;;;;;;;-1.16;100.00;100163.03;10392001;28;20045;-77
2023/12/05 05:04:17;;;;;;;51.23;23.07;;;;;;;-0.84;100.00;100212.13;10400131;28;20041;-77
2023/12/05 05:09:17;;;;;;;46.67;23.13;;;;;;;-0.80;100.00;100213.41;10369075;28;20042;-77
2023/12/05 05:14:18;;;;;;;53.00;23.33;;;;;;;-0.80;100.00;100210.72;10399270;28;20042;-77
2023/12/05 05:19:18;;;;;;;50.73;24.00;;;;;;;-0.91;100.00;100198.56;10381286;28;20055;-77
2023/12/05 05:24:19;;;;;;;46.77;22.13;;;;;;;-0.83;100.00;100213.78;10399467;28;20033;-77
2023/12/05 05:29:19;;;;;;;47.17;23.40;;;;;;;-0.90;100.00;100199.41;10382236;28;20041;-78
2023/12/05 05:34:20;;;;;;;47.13;21.57;;;;;;;-0.88;100.00;100206.28;10375896;28;20069;-77
2023/12/05 05:39:20;;;;;;;46.37;22.30;;;;;;;-0.82;100.00;100212.78;10363029;28;20109;-76
2023/12/05 05:44:21;;;;;;;49.27;22.37;;;;;;;-0.85;100.00;100215.84;10400076;28;20045;-77
2023/12/05 05:49:21;;;;;;;51.93;24.40;;;;;;;-0.84;100.00;100209.44;10415007;28;20060;-77
2023/12/05 05:54:22;;;;;;;53.43;24.20;;;;;;;-0.87;100.00;100218.78;10409316;28;20474;-76
2023/12/05 05:59:22;;;;;;;42.30;20.57;;;;;;;-0.90;100.00;100218.31;10381089;28;20037;-76
2023/12/05 06:04:22;;;;;;;55.50;23.77;;;;;;;-0.85;100.00;100224.81;10399312;28;20041;-76
2023/12/05 06:09:23;;;;;;;53.00;23.43;;;;;;;-0.90;100.00;100219.16;10407013;28;20045;-76
2023/12/05 06:14:23;;;;;;;52.60;24.33;;;;;;;-0.94;100.00;100211.63;10400302;28;20049;-73
2023/12/05 06:19:24;;;;;;;52.33;24.33;;;;;;;-0.84;100.00;100228.34;10422483;28;20075;-77
2023/12/05 06:24:26;;;;;;;55.63;24.13;;;;;;;-0.81;100.00;100236.06;10387778;28;20041;-77
2023/12/05 06:29:27;;;;;;;51.57;22.83;;;;;;;-0.80;100.00;100232.34;10405727;28;20037;-77
2023/12/05 06:34:28;;;;;;;50.93;22.43;;;;;;;-0.89;100.00;100225.38;10389456;28;20033;-77
2023/12/05 06:39:28;;;;;;;48.07;23.30;;;;;;;-0.78;100.00;100232.97;10388142;28;20120;-77
2023/12/05 06:44:29;;;;;;;50.40;23.52;;;;;;;-0.79;100.00;100241.25;10424814;28;20037;-77
2023/12/05 06:49:29;;;;;;;51.53;22.80;;;;;;;-0.82;100.00;100237.09;10405270;28;20037;-77
2023/12/05 06:54:30;;;;;;;48.93;23.47;;;;;;;-0.79;100.00;100258.31;10405011;28;20044;-77
2023/12/05 06:59:30;;;;;;;50.50;22.97;;;;;;;-0.81;100.00;100238.75;10388078;28;20048;-76
2023/12/05 07:04:30;;;;;;;44.07;21.03;;;;;;;-0.88;100.00;100236.00;10417129;28;20099;-77
2023/12/05 07:09:32;;;;;;;49.77;24.50;;;;;;;-0.83;100.00;100255.19;10405941;28;20052;-77
2023/12/05 07:14:36;;;;;;;49.13;24.00;;;;;;;-0.82;100.00;100258.72;10421333;28;20041;-77
2023/12/05 07:19:36;;;;;;;49.53;23.17;;;;;;;-0.82;100.00;100256.00;10402887;28;20046;-77
2023/12/05 07:24:37;;;;;;;55.23;23.20;;;;;;;-0.84;100.00;100264.31;10420675;28;20034;-76
2023/12/05 07:29:37;;;;;;;54.33;24.80;;;;;;;-0.82;100.00;100264.94;10397132;28;20033;-77
2023/12/05 07:34:39;;;;;;;49.43;24.00;;;;;;;-0.83;100.00;100274.09;10402041;28;20041;-77
2023/12/05 07:39:39;;;;;;;54.73;24.90;;;;;;;-0.79;100.00;100279.94;10404233;28;20492;-77
2023/12/05 07:44:39;;;;;;;52.83;23.33;;;;;;;-0.73;100.00;100279.16;10416123;28;20041;-76
2023/12/05 07:49:46;;;;;;;51.83;24.60;;;;;;;-0.80;100.00;100267.47;10401975;28;20088;-76
2023/12/05 07:54:47;;;;;;;46.83;22.60;;;;;;;-0.72;100.00;100285.41;10387984;28;20061;-76
2023/12/05 07:59:50;;;;;;;54.10;25.43;;;;;;;-0.78;100.00;100287.03;10402550;28;20436;-76
2023/12/05 08:04:51;;;;;;;56.57;25.87;;;;;;;-0.72;100.00;100285.41;10407584;28;20052;-77
2023/12/05 08:09:51;;;;;;;53.63;24.53;;;;;;;-0.63;100.00;100295.06;10402240;28;20037;-76
2023/12/05 08:14:52;;;;;;;51.40;24.97;;;;;;;-0.70;100.00;100276.06;10386856;28;20037;-76
2023/12/05 08:19:53;;;;;;;50.33;25.33;;;;;;;-0.63;100.00;100285.06;10385712;28;20091;-76
2023/12/05 08:24:53;;;;;;;54.27;25.60;;;;;;;-0.56;100.00;100300.50;10378291;28;20041;-76
2023/12/05 08:29:54;;;;;;;53.27;23.50;;;;;;;-0.56;100.00;100303.22;10400669;28;20041;-76
2023/12/05 08:34:55;;;;;;;51.93;23.80;;;;;;;-0.58;100.00;100300.69;10379445;28;20037;-76
2023/12/05 08:39:55;;;;;;;50.57;23.63;;;;;;;-0.54;100.00;100320.06;10395646;28;20040;-76
2023/12/05 08:44:55;;;;;;;48.47;23.40;;;;;;;-0.59;100.00;100311.72;10398162;28;20046;-76
2023/12/05 08:49:56;;;;;;;50.23;24.80;;;;;;;-0.54;100.00;100315.50;10393583;28;20140;-76
2023/12/05 08:54:56;;;;;;;50.90;24.87;;;;;;;-0.44;100.00;100320.56;10418070;28;20048;-76
2023/12/05 08:59:57;;;;;;;54.70;25.00;;;;;;;-0.50;100.00;100316.78;10418959;28;20042;-75
2023/12/05 09:04:57;;;;;;;44.87;23.37;;;;;;;-0.49;100.00;100323.03;10380228;28;20029;-76
2023/12/05 09:09:58;;;;;;;49.23;24.23;;;;;;;-0.44;100.00;100326.81;10398956;28;20091;-76
2023/12/05 09:14:58;;;;;;;45.78;23.35;;;;;;;-0.33;100.00;100341.69;10383093;28;20029;-77
2023/12/05 09:19:59;;;;;;;47.37;24.43;;;;;;;-0.32;100.00;100345.22;10377351;28;20042;-76
2023/12/05 09:24:59;;;;;;;44.00;22.17;;;;;;;-0.36;100.00;100339.38;10380702;28;20076;-76
2023/12/05 09:30:00;;;;;;;54.40;24.60;;;;;;;-0.19;100.00;100363.41;10372702;28;20563;-76
2023/12/05 09:35:00;;;;;;;53.73;23.90;;;;;;;-0.24;100.00;100343.22;10414210;28;20545;-75
2023/12/05 09:40:01;;;;;;;50.38;22.42;;;;;;;-0.18;100.00;100362.41;10384690;28;20458;-75
2023/12/05 09:45:03;;;;;;;46.30;23.37;;;;;;;-0.06;100.00;100356.25;10374355;28;20034;-75
2023/12/05 09:50:04;;;;;;;41.30;22.03;;;;;;;-0.04;100.00;100361.47;10380604;28;20045;-75
2023/12/05 09:55:04;;;;;;;48.87;23.10;;;;;;;-0.05;100.00;100362.50;10412357;28;20055;-75
2023/12/05 10:00:06;;;;;;;46.03;23.00;;;;;;;-0.03;100.00;100366.66;10383535;28;20112;-74
2023/12/05 10:05:08;;;;;;;45.30;22.90;;;;;;;-0.07;100.00;100369.97;10393898;28;20121;-74
2023/12/05 10:10:09;;;;;;;41.40;21.80;;;;;;;-0.05;100.00;100371.44;10383201;28;20040;-75
2023/12/05 10:15:09;;;;;;;45.23;23.67;;;;;;;-0.07;100.00;100372.69;10400549;28;20343;-75
2023/12/05 10:20:10;;;;;;;41.47;21.77;;;;;;;-0.07;100.00;100356.44;10375064;28;20044;-75
2023/12/05 10:25:11;;;;;;;46.37;23.43;;;;;;;-0.03;100.00;100361.25;10423018;28;20088;-75
2023/12/05 10:30:11;;;;;;;39.67;20.57;;;;;;;0.05;100.00;100365.69;10432996;28;20084;-75
2023/12/05 10:35:12;;;;;;;39.87;20.70;;;;;;;0.06;100.00;100355.69;10432252;28;20049;-74
2023/12/05 10:40:12;;;;;;;41.37;22.60;;;;;;;0.07;100.00;100355.50;10413471;28;20069;-75
2023/12/05 10:45:13;;;;;;;37.57;20.37;;;;;;;0.15;100.00;100358.06;10412002;28;20604;-75
2023/12/05 10:50:13;;;;;;;39.60;21.20;;;;;;;0.10;100.00;100346.13;10400708;28;20048;-74
2023/12/05 10:55:14;;;;;;;39.03;19.90;;;;;;;0.19;100.00;100364.75;10405241;28;20040;-74
2023/12/05 11:00:15;;;;;;;40.07;20.33;;;;;;;0.15;100.00;100349.94;10396659;28;20080;-75
2023/12/05 11:05:15;;;;;;;39.87;22.53;;;;;;;0.22;100.00;100373.50;10396570;28;20045;-75
2023/12/05 11:10:16;;;;;;;35.67;20.03;;;;;;;0.17;100.00;100374.94;10396041;28;20045;-74
2023/12/05 11:15:20;;;;;;;42.57;22.47;;;;;;;0.19;100.00;100380.97;10405106;28;20048;-74
2023/12/05 11:20:50;;;;;;;43.00;21.87;;;;;;;0.24;100.00;100382.25;10382629;28;20066;-73
2023/12/05 11:26:12;;;;;;;39.38;20.70;;;;;;;0.24;100.00;100383.09;10389270;28;20509;-74
2023/12/05 11:31:37;;;;;;;41.42;20.40;;;;;;;0.24;100.00;100384.97;10440393;28;20059;-74
2023/12/05 11:37:12;;;;;;;41.60;21.57;;;;;;;0.26;100.00;100389.13;10439044;28;20235;-75
2023/12/05 11:42:14;;;;;;;42.55;23.20;;;;;;;0.33;100.00;100383.75;10439259;28;20488;-75
2023/12/05 11:47:30;;;;;;;42.93;21.63;;;;;;;0.39;100.00;100383.81;10415800;28;20033;-76
2023/12/05 11:52:39;;;;;;;40.17;20.95;;;;;;;0.47;100.00;100382.81;10479352;28;20045;-75
2023/12/05 11:57:40;;;;;;;43.40;22.08;;;;;;;0.41;100.00;100367.34;10452567;28;20159;-76
2023/12/05 12:02:42;;;;;;;36.50;20.47;;;;;;;0.40;100.00;100381.94;10405163;28;20100;-75
2023/12/05 12:07:56;;;;;;;43.90;20.77;;;;;;;0.33;100.00;100381.06;10411517;28;20060;-74
2023/12/05 12:12:56;;;;;;;41.00;19.93;;;;;;;0.24;100.00;100387.66;10426245;28;20401;-74
2023/12/05 12:17:57;;;;;;;43.50;21.85;;;;;;;0.20;100.00;100387.22;10409843;28;20040;-74
2023/12/05 12:22:57;;;;;;;38.53;20.43;;;;;;;0.10;100.00;100392.16;10412385;28;20063;-75
2023/12/05 12:27:58;;;;;;;42.47;22.47;;;;;;;0.09;100.00;100407.56;10426980;28;20045;-74
2023/12/05 12:33:09;;;;;;;43.22;23.08;;;;;;;0.09;100.00;100404.84;10454884;28;20090;-75
2023/12/05 12:38:09;;;;;;;43.87;22.50;;;;;;;0.07;100.00;100403.38;10458389;28;20037;-74
2023/12/05 12:43:12;;;;;;;41.17;23.08;;;;;;;0.13;100.00;100418.84;10429861;28;20464;-74
2023/12/05 12:48:13;;;;;;;42.37;22.07;;;;;;;0.16;100.00;100413.84;10414783;28;20047;-74
2023/12/05 12:53:14;;;;;;;42.35;22.17;;;;;;;0.18;100.00;100417.19;10439464;28;20044;-75
2023/12/05 12:58:15;;;;;;;44.17;23.10;;;;;;;0.15;100.00;100414.06;10453373;28;20064;-74
2023/12/05 13:03:15;;;;;;;44.17;22.67;;;;;;;0.09;100.00;100412.97;10420204;28;20040;-75
2023/12/05 13:08:15;;;;;;;39.60;20.83;;;;;;;0.03;100.00;100408.34;10417820;28;20032;-74
2023/12/05 13:13:17;;;;;;;52.60;22.63;;;;;;;0.02;100.00;100422.06;10420842;28;20037;-75
2023/12/05 13:18:17;;;;;;;49.00;24.25;;;;;;;-0.08;100.00;100417.03;10442476;28;20040;-74
2023/12/05 13:23:18;;;;;;;47.83;23.27;;;;;;;-0.16;100.00;100419.88;10441027;28;20060;-75
2023/12/05 13:28:19;;;;;;;45.90;22.23;;;;;;;-0.16;100.00;100422.56;10447455;28;20044;-75
2023/12/05 13:33:19;;;;;;;44.47;23.13;;;;;;;-0.15;100.00;100435.06;10407428;28;20052;-75
2023/12/05 13:38:20;;;;;;;44.60;23.05;;;;;;;-0.27;100.00;100416.66;10426015;28;20079;-76
2023/12/05 13:43:20;;;;;;;49.57;25.00;;;;;;;-0.24;100.00;100428.94;10427361;28;20048;-76
2023/12/05 13:48:21;;;;;;;44.37;22.10;;;;;;;-0.25;100.00;100425.41;10432401;28;20036;-75
2023/12/05 13:53:23;;;;;;;45.83;23.13;;;;;;;-0.26;100.00;100426.44;10418046;28;20032;-75
2023/12/05 13:58:23;;;;;;;50.25;24.02;;;;;;;-0.23;100.00;100425.19;10407316;28;20036;-75
2023/12/05 14:03:24;;;;;;;48.70;24.83;;;;;;;-0.25;100.00;100421.84;10425841;28;20522;-74
2023/12/05 14:08:24;;;;;;;52.95;24.73;;;;;;;-0.31;100.00;100428.91;10447037;28;20032;-74
2023/12/05 14:13:25;;;;;;;54.00;23.90;;;;;;;-0.74;100.00;100377.50;10407269;28;20099;-75
2023/12/05 14:18:25;;;;;;;57.30;25.33;;;;;;;-0.37;100.00;100450.44;10422832;28;20037;-75
2023/12/05 14:23:26;;;;;;;54.70;27.70;;;;;;;-0.39;100.00;100447.09;10428177;28;20517;-73
2023/12/05 14:28:26;;;;;;;55.90;26.47;;;;;;;-0.41;100.00;100466.25;10435271;28;20044;-74
2023/12/05 14:33:27;;;;;;;56.33;25.80;;;;;;;-0.49;100.00;100464.50;10440502;28;20038;-74
2023/12/05 14:38:28;;;;;;;56.43;25.80;;;;;;;-0.47;100.00;100462.44;10460609;28;20508;-74
2023/12/05 14:43:29;;;;;;;51.50;25.80;;;;;;;-0.47;100.00;100461.59;10413217;28;20044;-75
2023/12/05 14:48:30;;;;;;;59.93;29.77;;;;;;;-0.65;100.00;100453.91;10407156;28;20059;-74
2023/12/05 14:53:30;;;;;;;57.93;27.90;;;;;;;-0.55;100.00;100472.53;10411116;28;20041;-74
2023/12/05 14:58:31;;;;;;;63.57;28.57;;;;;;;-0.58;100.00;100475.59;10411923;28;20033;-74
2023/12/05 15:03:31;;;;;;;50.00;26.07;;;;;;;-0.59;100.00;100488.31;10428597;28;20060;-74
2023/12/05 15:08:32;;;;;;;62.37;30.07;;;;;;;-0.64;100.00;100494.28;10411731;28;20040;-75
2023/12/05 15:13:32;;;;;;;61.50;29.10;;;;;;;-0.68;100.00;100498.41;10428789;28;20099;-73
2023/12/05 15:18:32;;;;;;;68.13;31.90;;;;;;;-0.63;100.00;100509.47;10412924;28;20045;-74
2023/12/05 15:23:33;;;;;;;65.00;29.57;;;;;;;-0.67;100.00;100505.47;10411350;28;20057;-75
2023/12/05 15:28:37;;;;;;;67.83;28.83;;;;;;;-0.73;100.00;100505.38;10411166;28;20033;-74
2023/12/05 15:33:38;;;;;;;70.40;30.00;;;;;;;-0.67;100.00;100510.88;10428438;28;20447;-74
2023/12/05 15:38:39;;;;;;;65.63;30.30;;;;;;;-0.67;100.00;100512.75;10409370;28;20061;-75
2023/12/05 15:43:40;;;;;;;65.10;30.00;;;;;;;-0.73;100.00;100514.34;10444339;28;20041;-74
2023/12/05 15:48:41;;;;;;;74.43;30.87;;;;;;;-0.71;100.00;100525.78;10426201;28;20044;-74
2023/12/05 15:53:42;;;;;;;70.93;34.27;;;;;;;-0.72;100.00;100529.53;10413743;28;20048;-73
2023/12/05 15:58:42;;;;;;;65.43;31.50;;;;;;;-0.81;100.00;100522.53;10424574;28;20124;-74
2023/12/05 16:03:43;;;;;;;73.77;33.20;;;;;;;-0.72;100.00;100539.53;10390010;28;20041;-74
2023/12/05 16:08:43;;;;;;;70.73;33.60;;;;;;;-0.77;100.00;100531.94;10460102;28;20029;-75
2023/12/05 16:13:44;;;;;;;81.00;36.70;;;;;;;-0.70;100.00;100556.41;10441090;28;20049;-74
2023/12/05 16:18:44;;;;;;;77.13;33.40;;;;;;;-0.78;100.00;100530.28;10442755;28;20068;-74
2023/12/05 16:23:45;;;;;;;75.67;32.63;;;;;;;-0.68;100.00;100552.47;10427047;28;20048;-74
2023/12/05 16:28:45;;;;;;;69.47;32.77;;;;;;;-1.05;100.00;100500.22;10412903;28;20037;-74
2023/12/05 16:33:46;;;;;;;69.60;31.73;;;;;;;-0.84;100.00;100539.16;10410335;28;20032;-74
2023/12/05 16:38:46;;;;;;;69.83;32.43;;;;;;;-0.74;100.00;100553.22;10421257;28;20035;-74
2023/12/05 16:43:48;;;;;;;73.50;37.30;;;;;;;-0.84;100.00;100544.56;10473362;28;20048;-75
2023/12/05 16:48:50;;;;;;;72.93;33.57;;;;;;;-0.75;100.00;100556.94;10410525;28;20490;-75
2023/12/05 16:53:50;;;;;;;89.23;36.53;;;;;;;-0.73;100.00;100565.69;10390523;28;20052;-74
2023/12/05 16:58:51;;;;;;;75.23;31.90;;;;;;;-0.73;100.00;100571.09;10410036;28;20036;-75
2023/12/05 17:03:51;;;;;;;80.83;38.33;;;;;;;-0.73;100.00;100575.69;10422261;28;20036;-74
2023/12/05 17:08:53;;;;;;;75.47;33.97;;;;;;;-0.75;100.00;100583.97;10411621;28;20040;-75
2023/12/05 17:13:53;;;;;;;78.17;35.30;;;;;;;-0.78;100.00;100584.34;10408220;28;20047;-75
2023/12/05 17:18:55;;;;;;;83.37;36.57;;;;;;;-0.75;100.00;100589.38;10410106;28;20052;-74
2023/12/05 17:23:56;;;;;;;73.40;34.67;;;;;;;-0.74;100.00;100601.03;10418115;28;20161;-75
2023/12/05 17:28:57;;;;;;;78.07;35.63;;;;;;;-0.76;100.00;100603.09;10391786;28;20124;-75
2023/12/05 17:33:58;;;;;;;75.87;34.00;;;;;;;-0.72;100.00;100602.53;10418477;28;20056;-73
2023/12/05 17:38:58;;;;;;;80.77;35.03;;;;;;;-0.70;100.00;100614.00;10453170;28;20033;-75
2023/12/05 17:43:58;;;;;;;79.40;34.03;;;;;;;-0.67;100.00;100624.41;10420071;28;20413;-75
2023/12/05 17:48:59;;;;;;;76.77;33.90;;;;;;;-0.74;100.00;100612.69;10457067;28;20068;-74
2023/12/05 17:53:59;;;;;;;78.27;35.10;;;;;;;-0.69;100.00;100622.94;10445217;28;20508;-73
2023/12/05 17:59:00;;;;;;;75.50;35.97;;;;;;;-0.69;100.00;100621.06;10451632;28;20038;-75
2023/12/05 18:04:00;;;;;;;72.23;34.27;;;;;;;-0.66;100.00;100628.81;10455722;28;20045;-75
2023/12/05 18:09:01;;;;;;;79.53;34.50;;;;;;;-0.70;100.00;100619.41;10427782;28;20033;-75
2023/12/05 18:14:01;;;;;;;78.57;36.40;;;;;;;-0.71;100.00;100628.53;10414750;28;20037;-75
2023/12/05 18:19:06;;;;;;;74.40;34.97;;;;;;;-0.71;100.00;100630.41;10394713;28;20120;-74
2023/12/05 18:24:06;;;;;;;78.37;33.97;;;;;;;-0.68;100.00;100630.88;10409326;28;20048;-74
2023/12/05 18:29:07;;;;;;;82.13;37.07;;;;;;;-0.72;100.00;100634.97;10463933;28;20041;-75
2023/12/05 18:34:07;;;;;;;80.27;34.93;;;;;;;-0.69;100.00;100642.69;10429548;28;20064;-74
2023/12/05 18:39:08;;;;;;;74.73;34.37;;;;;;;-0.70;100.00;100641.03;10429019;28;20044;-74
2023/12/05 18:44:08;;;;;;;69.90;35.00;;;;;;;-0.69;100.00;100648.09;10398053;28;20045;-74
2023/12/05 18:49:09;;;;;;;81.37;35.57;;;;;;;-0.69;100.00;100650.81;10445864;28;20075;-74
2023/12/05 18:54:09;;;;;;;74.37;34.97;;;;;;;-0.81;100.00;100638.78;10389137;28;20041;-74
2023/12/05 18:59:10;;;;;;;80.03;36.50;;;;;;;-0.69;100.00;100658.91;10418369;28;20040;-75
2023/12/05 19:04:10;;;;;;;74.97;34.30;;;;;;;-0.76;100.00;100646.34;10417413;28;20048;-74
2023/12/05 19:09:12;;;;;;;73.27;34.97;;;;;;;-0.72;100.00;100653.88;10412579;28;20041;-74
2023/12/05 19:14:15;;;;;;;75.27;36.13;;;;;;;-0.62;100.00;100672.53;10410312;28;20049;-76
2023/12/05 19:19:15;;;;;;;65.47;32.30;;;;;;;-0.59;100.00;100684.84;10426666;28;20041;-77
2023/12/05 19:24:16;;;;;;;66.67;33.60;;;;;;;-0.67;100.00;100667.69;10416243;28;20033;-77
2023/12/05 19:29:17;;;;;;;78.90;35.57;;;;;;;-0.58;100.00;100673.00;10410653;28;20099;-76
2023/12/05 19:34:18;;;;;;;72.43;34.63;;;;;;;-0.61;100.00;100683.16;10461038;28;20049;-77
2023/12/05 19:39:18;;;;;;;78.07;36.00;;;;;;;-0.61;100.00;100688.56;10406577;28;20096;-77
2023/12/05 19:44:19;;;;;;;82.70;36.57;;;;;;;-0.57;100.00;100699.03;10408923;28;20037;-77
2023/12/05 19:49:19;;;;;;;75.80;35.60;;;;;;;-0.57;100.00;100696.31;10442333;28;20033;-75
2023/12/05 19:54:20;;;;;;;75.00;35.83;;;;;;;-0.60;100.00;100694.81;10409824;28;20060;-76
2023/12/05 19:59:20;;;;;;;72.23;36.13;;;;;;;-0.93;100.00;100640.25;10431477;28;20056;-76
2023/12/05 20:04:21;;;;;;;76.00;34.13;;;;;;;-0.55;100.00;100703.22;10426319;28;20037;-74
2023/12/05 20:09:21;;;;;;;69.17;33.57;;;;;;;-0.55;100.00;100707.78;10426497;28;20052;-75
2023/12/05 20:14:21;;;;;;;73.10;33.63;;;;;;;-0.69;100.00;100696.75;10425985;28;20041;-74
2023/12/05 20:19:23;;;;;;;81.63;35.10;;;;;;;-0.66;100.00;100701.81;10423226;28;20056;-74
2023/12/05 20:24:23;;;;;;;83.93;39.20;;;;;;;-0.58;100.00;100713.56;10416971;28;20493;-74
2023/12/05 20:29:24;;;;;;;72.13;35.43;;;;;;;-0.55;100.00;100715.91;10407816;28;20029;-75
2023/12/05 20:34:24;;;;;;;87.23;38.43;;;;;;;-0.55;100.00;100721.31;10385688;28;20490;-74
2023/12/05 20:39:25;;;;;;;82.57;38.83;;;;;;;-0.55;100.00;100727.56;10386708;28;20072;-75
2023/12/05 20:44:26;;;;;;;83.97;38.67;;;;;;;-0.59;100.00;100722.72;10419050;28;20080;-72
2023/12/05 20:49:26;;;;;;;87.70;38.97;;;;;;;-0.54;100.00;100736.50;10379899;28;20060;-70
2023/12/05 20:54:26;;;;;;;86.73;38.13;;;;;;;-0.54;100.00;100731.91;10384067;28;20050;-75
2023/12/05 20:59:27;;;;;;;87.57;39.47;;;;;;;-0.53;100.00;100740.91;10399346;28;20048;-75
2023/12/05 21:04:27;;;;;;;87.93;38.87;;;;;;;-0.62;100.00;100723.88;10367327;28;20029;-74
2023/12/05 21:09:28;;;;;;;90.27;39.83;;;;;;;-0.62;100.00;100732.88;10384069;28;20041;-74
2023/12/05 21:14:28;;;;;;;79.00;36.97;;;;;;;-0.53;100.00;100740.91;10400079;28;20048;-76
2023/12/05 21:19:29;;;;;;;81.03;37.47;;;;;;;-0.55;100.00;100735.66;10393112;28;20034;-76
2023/12/05 21:24:29;;;;;;;84.57;39.03;;;;;;;-0.55;100.00;100738.38;10381625;28;20037;-77
2023/12/05 21:29:30;;;;;;;93.03;41.77;;;;;;;-0.57;100.00;100747.69;10404998;28;20105;-74
2023/12/05 21:34:31;;;;;;;92.60;39.87;;;;;;;-0.56;100.00;100746.66;10416881;28;20517;-74
2023/12/05 21:39:32;;;;;;;99.40;41.70;;;;;;;-0.57;100.00;100750.41;10384424;28;20042;-75
2023/12/05 21:44:32;;;;;;;91.50;40.53;;;;;;;-0.61;100.00;100742.63;10399905;28;20033;-76
2023/12/05 21:49:33;;;;;;;84.87;39.20;;;;;;;-0.70;100.00;100726.72;10399147;28;20853;-76
2023/12/05 21:54:33;;;;;;;83.27;42.47;;;;;;;-0.65;100.00;100744.03;10381987;28;20041;-76
2023/12/05 21:59:34;;;;;;;90.97;40.23;;;;;;;-0.60;100.00;100751.59;10381404;28;20056;-76
2023/12/05 22:04:34;;;;;;;84.90;40.13;;;;;;;-0.63;100.00;100763.63;10417171;28;20064;-75
2023/12/05 22:09:35;;;;;;;83.57;39.90;;;;;;;-0.59;100.00;100771.38;10399634;28;20474;-75
2023/12/05 22:14:35;;;;;;;87.30;39.87;;;;;;;-0.62;100.00;100776.13;10424315;28;20044;-76
2023/12/05 22:19:36;;;;;;;84.07;39.37;;;;;;;-0.65;100.00;100784.59;10399119;28;20091;-76